createdAt,value
2024-01-28T00:00:50.118Z,16.50
2024-01-28T00:03:22.292Z,17.40
2024-01-28T00:05:54.148Z,19.50
2024-01-28T00:08:27.873Z,9.80
2024-01-28T00:11:00.824Z,23.60
2024-01-28T00:13:36.623Z,19.70
2024-01-28T00:16:17.038Z,21.45
2024-01-28T00:18:48.860Z,14.97
2024-01-28T00:21:20.284Z,20.43
2024-01-28T00:23:52.417Z,27.87
2024-01-28T00:26:24.489Z,16.93
2024-01-28T00:28:56.975Z,18.37
2024-01-28T00:31:28.443Z,18.33
2024-01-28T00:34:01.002Z,15.03
2024-01-28T00:36:32.661Z,22.67
2024-01-28T00:39:04.582Z,17.27
2024-01-28T00:41:38.280Z,18.07
2024-01-28T00:44:09.926Z,18.07
2024-01-28T00:46:41.265Z,12.17
2024-01-28T00:49:13.055Z,15.87
2024-01-28T00:51:44.686Z,17.40
2024-01-28T00:54:16.736Z,21.37
2024-01-28T00:56:48.630Z,20.83
2024-01-28T00:59:21.829Z,15.87
2024-01-28T01:01:53.653Z,17.90
2024-01-28T01:04:25.030Z,13.47
2024-01-28T01:06:56.502Z,20.43
2024-01-28T01:09:27.910Z,14.30
2024-01-28T01:11:59.287Z,14.87
2024-01-28T01:14:31.126Z,13.73
2024-01-28T01:17:03.645Z,15.07
2024-01-28T01:19:35.106Z,20.73
2024-01-28T01:22:06.580Z,20.70
2024-01-28T01:24:38.643Z,15.73
2024-01-28T01:27:10.301Z,16.10
2024-01-28T01:29:41.699Z,18.90
2024-01-28T01:32:13.019Z,19.13
2024-01-28T01:34:44.453Z,17.23
2024-01-28T01:37:15.947Z,16.67
2024-01-28T01:39:47.348Z,21.17
2024-01-28T01:42:18.835Z,21.13
2024-01-28T01:44:50.217Z,17.87
2024-01-28T01:47:22.401Z,27.13
2024-01-28T01:49:54.056Z,13.00
2024-01-28T01:52:26.472Z,14.07
2024-01-28T01:54:57.866Z,20.77
2024-01-28T01:57:30.335Z,14.27
2024-01-28T02:00:02.547Z,21.27
2024-01-28T02:02:34.670Z,15.67
2024-01-28T02:05:07.473Z,18.77
2024-01-28T02:07:39.498Z,18.23
2024-01-28T02:10:11.229Z,22.63
2024-01-28T02:12:45.226Z,23.83
2024-01-28T02:15:17.834Z,18.80
2024-01-28T02:17:49.382Z,27.50
2024-01-28T02:20:21.890Z,20.63
2024-01-28T02:22:53.238Z,25.70
2024-01-28T02:25:24.818Z,19.70
2024-01-28T02:27:56.199Z,22.37
2024-01-28T02:30:27.565Z,17.17
2024-01-28T02:32:58.965Z,21.37
2024-01-28T02:35:30.508Z,13.97
2024-01-28T02:38:02.018Z,16.80
2024-01-28T02:40:34.502Z,16.27
2024-01-28T02:43:07.061Z,20.30
2024-01-28T02:45:38.430Z,21.40
2024-01-28T02:48:09.974Z,20.20
2024-01-28T02:50:41.389Z,21.30
2024-01-28T02:53:12.774Z,20.67
2024-01-28T02:55:44.140Z,16.43
2024-01-28T02:58:15.505Z,14.20
2024-01-28T03:00:47.198Z,17.30
2024-01-28T03:03:19.151Z,18.47
2024-01-28T03:05:50.586Z,22.00
2024-01-28T03:08:22.009Z,16.33
2024-01-28T03:10:53.620Z,20.70
2024-01-28T03:13:24.984Z,14.07
2024-01-28T03:15:56.456Z,24.33
2024-01-28T03:18:27.967Z,15.77
2024-01-28T03:20:59.293Z,19.10
2024-01-28T03:23:31.696Z,20.63
2024-01-28T03:26:03.871Z,18.03
2024-01-28T03:28:35.180Z,18.33
2024-01-28T03:31:06.491Z,18.67
2024-01-28T03:33:38.035Z,12.67
2024-01-28T03:36:09.545Z,18.37
2024-01-28T03:38:41.314Z,19.97
2024-01-28T03:41:15.714Z,22.13
2024-01-28T03:43:50.082Z,21.30
2024-01-28T03:46:21.476Z,17.60
2024-01-28T03:48:52.949Z,17.87
2024-01-28T03:51:24.523Z,24.57
2024-01-28T03:53:56.653Z,22.90
2024-01-28T03:56:28.126Z,13.17
2024-01-28T03:58:59.446Z,21.17
2024-01-28T04:01:35.215Z,19.17
2024-01-28T04:04:09.074Z,21.77
2024-01-28T04:06:45.167Z,13.60
2024-01-28T04:09:16.997Z,17.27
2024-01-28T04:11:48.360Z,14.53
2024-01-28T04:14:19.754Z,19.73
2024-01-28T04:16:51.227Z,17.50
2024-01-28T04:19:22.774Z,16.10
2024-01-28T04:21:54.807Z,16.43
2024-01-28T04:24:26.255Z,15.17
2024-01-28T04:26:59.052Z,16.97
2024-01-28T04:29:30.812Z,18.00
2024-01-28T04:32:02.162Z,18.07
2024-01-28T04:34:35.145Z,13.00
2024-01-28T04:37:06.525Z,11.93
2024-01-28T04:39:39.120Z,12.87
2024-01-28T04:42:11.406Z,15.87
2024-01-28T04:44:43.140Z,18.43
2024-01-28T04:47:14.535Z,15.20
2024-01-28T04:49:46.473Z,17.17
2024-01-28T04:52:18.278Z,19.10
2024-01-28T04:54:50.284Z,12.97
2024-01-28T04:57:21.702Z,14.30
2024-01-28T04:59:53.024Z,14.20
2024-01-28T05:02:24.338Z,13.27
2024-01-28T05:04:55.663Z,8.77
2024-01-28T05:07:26.982Z,13.97
2024-01-28T05:09:58.704Z,12.80
2024-01-28T05:12:30.057Z,13.73
2024-01-28T05:15:02.479Z,11.47
2024-01-28T05:17:36.512Z,22.00
2024-01-28T05:20:10.430Z,12.87
2024-01-28T05:22:42.316Z,14.60
2024-01-28T05:25:14.342Z,20.17
2024-01-28T05:27:45.917Z,10.80
2024-01-28T05:30:17.465Z,12.77
2024-01-28T05:32:49.411Z,10.20
2024-01-28T05:35:20.766Z,14.07
2024-01-28T05:37:52.107Z,12.30
2024-01-28T05:40:24.099Z,14.60
2024-01-28T05:42:56.582Z,17.93
2024-01-28T05:45:28.275Z,9.70
2024-01-28T05:48:02.888Z,11.80
2024-01-28T05:50:34.719Z,18.50
2024-01-28T05:53:06.962Z,16.27
2024-01-28T05:55:38.366Z,14.67
2024-01-28T05:58:09.674Z,14.57
2024-01-28T06:00:41.140Z,12.73
2024-01-28T06:03:12.550Z,10.10
2024-01-28T06:05:44.027Z,12.03
2024-01-28T06:08:17.036Z,13.13
2024-01-28T06:10:48.345Z,12.00
2024-01-28T06:13:19.707Z,15.53
2024-01-28T06:15:54.078Z,16.00
2024-01-28T06:18:25.766Z,10.33
2024-01-28T06:20:57.756Z,17.03
2024-01-28T06:23:29.089Z,12.80
2024-01-28T06:26:00.433Z,14.33
2024-01-28T06:28:32.600Z,12.03
2024-01-28T06:31:04.081Z,11.83
2024-01-28T06:33:35.515Z,9.30
2024-01-28T06:36:08.228Z,13.77
2024-01-28T06:38:39.566Z,11.40
2024-01-28T06:41:10.945Z,9.07
2024-01-28T06:43:42.521Z,17.27
2024-01-28T06:46:16.936Z,15.37
2024-01-28T06:48:48.620Z,17.30
2024-01-28T06:51:20.101Z,10.53
2024-01-28T06:53:53.112Z,13.23
2024-01-28T06:56:24.807Z,9.77
2024-01-28T06:58:56.188Z,13.40
2024-01-28T07:01:27.608Z,10.10
2024-01-28T07:04:00.238Z,12.67
2024-01-28T07:06:31.687Z,12.63
2024-01-28T07:09:03.647Z,12.37
2024-01-28T07:11:35.038Z,13.00
2024-01-28T07:14:06.376Z,11.60
2024-01-28T07:16:41.047Z,15.00
2024-01-28T07:21:45.848Z,12.03
2024-01-28T07:24:17.293Z,9.07
2024-01-28T07:26:48.855Z,13.90
2024-01-28T07:29:20.160Z,11.60
2024-01-28T07:31:54.820Z,11.63
2024-01-28T07:34:26.244Z,12.27
2024-01-28T07:36:58.970Z,16.43
2024-01-28T07:39:30.621Z,9.77
2024-01-28T07:42:02.259Z,16.97
2024-01-28T07:44:33.646Z,12.67
2024-01-28T07:47:06.117Z,9.43
2024-01-28T07:49:37.887Z,13.07
2024-01-28T07:52:09.237Z,11.87
2024-01-28T07:54:40.571Z,10.60
2024-01-28T07:57:11.895Z,14.97
2024-01-28T07:59:43.213Z,11.50
2024-01-28T08:02:14.594Z,10.40
2024-01-28T08:04:47.713Z,6.80
2024-01-28T08:07:19.124Z,14.53
2024-01-28T08:09:50.784Z,14.10
2024-01-28T08:12:22.256Z,21.00
2024-01-28T08:14:54.040Z,17.70
2024-01-28T08:17:25.646Z,13.97
2024-01-28T08:19:58.008Z,11.17
2024-01-28T08:22:29.344Z,8.77
2024-01-28T08:25:00.775Z,14.57
2024-01-28T08:27:32.342Z,11.97
2024-01-28T08:30:04.501Z,17.83
2024-01-28T08:32:35.957Z,13.67
2024-01-28T08:35:08.876Z,7.60
2024-01-28T08:37:40.306Z,15.43
2024-01-28T08:40:11.782Z,15.30
2024-01-28T08:42:43.260Z,18.67
2024-01-28T08:45:14.773Z,12.10
2024-01-28T08:47:46.353Z,10.70
2024-01-28T08:50:18.042Z,11.43
2024-01-28T08:52:50.818Z,9.97
2024-01-28T08:55:23.256Z,7.23
2024-01-28T08:57:54.599Z,8.70
2024-01-28T09:00:26.551Z,10.70
2024-01-28T09:02:57.966Z,10.60
2024-01-28T09:05:29.630Z,10.60
2024-01-28T09:08:01.689Z,9.30
2024-01-28T09:10:33.000Z,5.50
2024-01-28T09:13:05.235Z,10.87
2024-01-28T09:15:36.614Z,12.13
2024-01-28T09:18:08.041Z,8.57
2024-01-28T09:20:39.525Z,9.80
2024-01-28T09:23:14.693Z,7.83
2024-01-28T09:25:46.006Z,7.87
2024-01-28T09:28:18.022Z,10.73
2024-01-28T09:30:49.589Z,8.33
2024-01-28T09:33:21.088Z,8.60
2024-01-28T09:35:53.606Z,8.90
2024-01-28T09:38:25.170Z,11.87
2024-01-28T09:41:03.101Z,6.77
2024-01-28T09:43:40.363Z,6.37
2024-01-28T09:46:12.248Z,6.87
2024-01-28T09:48:49.766Z,6.30
2024-01-28T09:51:23.583Z,8.47
2024-01-28T09:53:55.216Z,7.17
2024-01-28T09:56:27.461Z,12.63
2024-01-28T09:59:00.381Z,5.50
2024-01-28T10:01:32.744Z,8.30
2024-01-28T10:04:04.373Z,7.20
2024-01-28T10:06:35.770Z,5.90
2024-01-28T10:09:07.161Z,9.27
2024-01-28T10:11:38.696Z,11.10
2024-01-28T10:14:11.749Z,5.07
2024-01-28T10:16:46.902Z,7.83
2024-01-28T10:19:22.206Z,10.07
2024-01-28T10:21:58.207Z,7.88
2024-01-28T10:24:30.193Z,8.35
2024-01-28T10:27:01.878Z,13.73
2024-01-28T10:29:33.501Z,7.50
2024-01-28T10:32:05.420Z,9.33
2024-01-28T10:34:37.953Z,7.33
2024-01-28T10:37:13.173Z,4.53
2024-01-28T10:39:47.460Z,3.77
2024-01-28T10:42:20.634Z,4.77
2024-01-28T10:44:53.441Z,7.80
2024-01-28T10:47:27.680Z,4.83
2024-01-28T10:50:01.401Z,3.20
2024-01-28T10:52:35.268Z,5.93
2024-01-28T10:55:07.329Z,5.33
2024-01-28T10:57:40.882Z,3.57
2024-01-28T11:00:14.354Z,4.43
2024-01-28T11:02:46.153Z,5.43
2024-01-28T11:05:18.794Z,3.13
2024-01-28T11:07:51.408Z,4.20
2024-01-28T11:10:22.893Z,3.37
2024-01-28T11:12:55.309Z,5.83
2024-01-28T11:15:29.432Z,7.03
2024-01-28T11:18:02.664Z,4.47
2024-01-28T11:20:35.585Z,4.47
2024-01-28T11:23:16.144Z,5.97
2024-01-28T11:25:48.119Z,7.23
2024-01-28T11:28:21.320Z,4.87
2024-01-28T11:30:54.578Z,3.33
2024-01-28T11:33:26.202Z,6.53
2024-01-28T11:36:00.373Z,5.70
2024-01-28T11:38:40.619Z,5.43
2024-01-28T11:41:17.287Z,4.57
2024-01-28T11:43:48.726Z,5.13
2024-01-28T11:46:21.229Z,4.87
2024-01-28T11:48:53.010Z,3.90
2024-01-28T11:51:24.390Z,5.23
2024-01-28T11:53:55.947Z,3.33
2024-01-28T11:56:29.423Z,5.90
2024-01-28T11:59:02.729Z,3.27
2024-01-28T12:01:34.343Z,3.43
2024-01-28T12:04:05.813Z,2.93
2024-01-28T12:06:37.419Z,7.53
2024-01-28T12:09:09.096Z,2.73
2024-01-28T12:11:40.432Z,5.13
2024-01-28T12:14:11.989Z,6.17
2024-01-28T12:16:43.644Z,2.27
2024-01-28T12:19:15.604Z,4.70
2024-01-28T12:21:48.228Z,4.13
2024-01-28T12:24:23.278Z,2.97
2024-01-28T12:26:54.757Z,3.40
2024-01-28T12:29:28.610Z,9.67
2024-01-28T12:32:00.931Z,4.27
2024-01-28T12:34:32.434Z,2.77
2024-01-28T12:37:05.722Z,5.57
2024-01-28T12:39:37.281Z,2.33
2024-01-28T12:42:08.641Z,5.87
2024-01-28T12:44:40.005Z,5.23
2024-01-28T12:47:11.471Z,5.07
2024-01-28T12:49:42.906Z,2.77
2024-01-28T12:52:14.461Z,4.27
2024-01-28T12:54:46.100Z,3.70
2024-01-28T12:57:18.310Z,3.07
2024-01-28T12:59:49.808Z,2.67
2024-01-28T13:02:21.262Z,4.17
2024-01-28T13:04:54.872Z,2.07
2024-01-28T13:07:26.425Z,2.43
2024-01-28T13:09:58.815Z,4.13
2024-01-28T13:12:34.653Z,3.90
2024-01-28T13:15:08.455Z,6.20
2024-01-28T13:17:41.170Z,3.70
2024-01-28T13:20:13.623Z,5.30
2024-01-28T13:22:46.300Z,6.63
2024-01-28T13:25:18.074Z,3.73
2024-01-28T13:27:49.769Z,3.70
2024-01-28T13:30:21.202Z,3.23
2024-01-28T13:32:52.689Z,5.60
2024-01-28T13:35:24.145Z,4.43
2024-01-28T13:37:55.724Z,3.50
2024-01-28T13:40:27.067Z,6.13
2024-01-28T13:42:59.003Z,3.60
2024-01-28T13:45:30.457Z,5.03
2024-01-28T13:48:02.067Z,3.43
2024-01-28T13:50:33.893Z,5.07
2024-01-28T13:53:09.202Z,4.13
2024-01-28T13:55:40.701Z,3.97
2024-01-28T13:58:12.745Z,3.70
2024-01-28T14:00:44.221Z,4.73
2024-01-28T14:03:15.744Z,3.53
2024-01-28T14:05:47.754Z,4.43
2024-01-28T14:08:19.635Z,3.03
2024-01-28T14:10:51.072Z,3.13
2024-01-28T14:13:23.501Z,4.57
2024-01-28T14:15:55.261Z,3.37
2024-01-28T14:18:26.658Z,3.53
2024-01-28T14:20:58.182Z,3.90
2024-01-28T14:23:29.513Z,3.27
2024-01-28T14:26:02.230Z,4.87
2024-01-28T14:28:33.593Z,4.83
2024-01-28T14:31:05.240Z,4.40
2024-01-28T14:33:37.189Z,4.17
2024-01-28T14:36:09.057Z,3.27
2024-01-28T14:38:40.400Z,4.77
2024-01-28T14:41:13.281Z,7.07
2024-01-28T14:43:44.662Z,3.37
2024-01-28T14:46:16.064Z,4.73
2024-01-28T14:48:47.588Z,5.07
2024-01-28T14:51:19.208Z,7.00
2024-01-28T14:53:51.124Z,6.50
2024-01-28T14:56:22.553Z,3.83
2024-01-28T14:58:54.002Z,2.60
2024-01-28T15:01:25.542Z,3.13
2024-01-28T15:03:57.081Z,5.67
2024-01-28T15:06:28.653Z,3.47
2024-01-28T15:09:00.919Z,3.73
2024-01-28T15:11:32.364Z,2.67
2024-01-28T15:14:04.128Z,3.93
2024-01-28T15:16:41.139Z,8.80
2024-01-28T15:19:13.005Z,4.10
2024-01-28T15:21:44.412Z,3.23
2024-01-28T15:24:15.844Z,3.80
2024-01-28T15:26:47.214Z,5.13
2024-01-28T15:29:20.864Z,6.67
2024-01-28T15:31:52.280Z,5.67
2024-01-28T15:34:25.359Z,4.80
2024-01-28T15:36:57.093Z,3.17
2024-01-28T15:39:28.473Z,4.37
2024-01-28T15:41:59.898Z,5.23
2024-01-28T15:44:31.262Z,5.70
2024-01-28T15:47:03.235Z,6.30
2024-01-28T15:49:35.887Z,4.37
2024-01-28T15:52:07.397Z,3.93
2024-01-28T15:54:39.078Z,8.43
2024-01-28T15:57:10.917Z,6.17
2024-01-28T15:59:51.775Z,5.43
2024-01-28T16:02:28.894Z,4.47
2024-01-28T16:05:00.368Z,6.17
2024-01-28T16:07:31.938Z,5.63
2024-01-28T16:10:03.453Z,5.37
2024-01-28T16:12:34.808Z,6.30
2024-01-28T16:15:07.629Z,6.50
2024-01-28T16:17:39.235Z,5.73
2024-01-28T16:20:12.479Z,5.17
2024-01-28T16:22:43.945Z,9.03
2024-01-28T16:25:15.488Z,5.20
2024-01-28T16:27:48.096Z,5.83
2024-01-28T16:30:19.457Z,3.37
2024-01-28T16:32:51.406Z,5.17
2024-01-28T16:35:23.221Z,3.50
2024-01-28T16:37:55.528Z,5.33
2024-01-28T16:40:28.131Z,7.60
2024-01-28T16:43:01.661Z,2.83
2024-01-28T16:45:33.024Z,6.03
2024-01-28T16:48:05.424Z,5.70
2024-01-28T16:50:37.935Z,9.20
2024-01-28T16:53:09.798Z,8.80
2024-01-28T16:55:41.110Z,7.47
2024-01-28T16:58:12.622Z,6.43
2024-01-28T17:00:44.073Z,4.50
2024-01-28T17:03:16.632Z,4.73
2024-01-28T17:05:48.355Z,7.83
2024-01-28T17:08:19.798Z,8.50
2024-01-28T17:10:51.151Z,5.83
2024-01-28T17:13:22.521Z,8.67
2024-01-28T17:15:54.039Z,5.87
2024-01-28T17:18:27.504Z,6.60
2024-01-28T17:21:00.356Z,3.40
2024-01-28T17:23:31.705Z,4.10
2024-01-28T17:26:04.597Z,4.77
2024-01-28T17:28:36.816Z,4.90
2024-01-28T17:31:08.959Z,5.90
2024-01-28T17:33:40.550Z,5.53
2024-01-28T17:36:12.171Z,8.80
2024-01-28T17:38:43.518Z,3.30
2024-01-28T17:41:14.863Z,4.40
2024-01-28T17:43:47.985Z,4.50
2024-01-28T17:46:19.556Z,2.60
2024-01-28T17:48:51.041Z,6.93
2024-01-28T17:51:22.511Z,3.53
2024-01-28T17:53:53.856Z,5.77
2024-01-28T17:56:25.866Z,4.20
2024-01-28T17:58:57.400Z,6.43
2024-01-28T18:01:29.026Z,3.80
2024-01-28T18:04:00.755Z,3.93
2024-01-28T18:06:32.616Z,5.07
2024-01-28T18:09:07.987Z,4.90
2024-01-28T18:11:39.445Z,10.23
2024-01-28T18:14:13.532Z,6.40
2024-01-28T18:16:45.677Z,6.07
2024-01-28T18:19:17.315Z,5.07
2024-01-28T18:21:49.465Z,5.10
2024-01-28T18:24:20.891Z,3.30
2024-01-28T18:26:52.285Z,5.97
2024-01-28T18:29:23.676Z,5.33
2024-01-28T18:31:55.130Z,5.30
2024-01-28T18:34:26.833Z,3.20
2024-01-28T18:36:58.392Z,3.00
2024-01-28T18:39:29.888Z,3.67
2024-01-28T18:42:01.352Z,3.57
2024-01-28T18:44:33.728Z,5.47
2024-01-28T18:47:05.612Z,4.83
2024-01-28T18:49:37.986Z,3.97
2024-01-28T18:52:10.653Z,3.90
2024-01-28T18:54:42.066Z,5.67
2024-01-28T18:57:13.678Z,3.43
2024-01-28T18:59:45.076Z,4.63
2024-01-28T19:02:19.239Z,3.80
2024-01-28T19:04:50.812Z,3.50
2024-01-28T19:07:22.248Z,3.77
2024-01-28T19:09:53.775Z,4.40
2024-01-28T19:12:25.123Z,3.10
2024-01-28T19:14:56.469Z,3.10
2024-01-28T19:17:28.439Z,5.40
2024-01-28T19:20:00.553Z,7.10
2024-01-28T19:22:32.387Z,2.60
2024-01-28T19:25:04.149Z,3.63
2024-01-28T19:27:35.635Z,4.60
2024-01-28T19:30:08.587Z,5.67
2024-01-28T19:32:40.316Z,4.90
2024-01-28T19:35:11.755Z,5.73
2024-01-28T19:37:43.207Z,2.63
2024-01-28T19:40:14.704Z,5.53
2024-01-28T19:42:46.267Z,3.03
2024-01-28T19:45:17.731Z,2.80
2024-01-28T19:47:49.327Z,3.20
2024-01-28T19:50:20.731Z,3.17
2024-01-28T19:52:52.088Z,2.70
2024-01-28T19:55:23.598Z,4.63
2024-01-28T19:57:55.077Z,4.47
2024-01-28T20:00:27.075Z,4.93
2024-01-28T20:02:58.834Z,4.97
2024-01-28T20:05:30.272Z,9.50
2024-01-28T20:08:01.662Z,4.60
2024-01-28T20:10:33.063Z,3.03
2024-01-28T20:13:05.837Z,3.40
2024-01-28T20:15:37.304Z,5.13
2024-01-28T20:18:08.706Z,4.77
2024-01-28T20:20:41.202Z,7.17
2024-01-28T20:23:14.849Z,3.60
2024-01-28T20:25:48.197Z,5.60
2024-01-28T20:28:23.177Z,5.87
2024-01-28T20:30:55.724Z,5.47
2024-01-28T20:33:28.667Z,8.80
2024-01-28T20:36:00.405Z,5.37
2024-01-28T20:38:32.974Z,4.67
2024-01-28T20:41:04.366Z,7.57
2024-01-28T20:43:35.922Z,5.87
2024-01-28T20:46:07.397Z,3.53
2024-01-28T20:48:38.928Z,3.77
2024-01-28T20:51:10.395Z,5.17
2024-01-28T20:53:41.875Z,3.87
2024-01-28T20:56:13.192Z,7.20
2024-01-28T20:58:45.300Z,5.57
2024-01-28T21:01:16.911Z,7.73
2024-01-28T21:03:48.498Z,7.37
2024-01-28T21:06:20.345Z,4.70
2024-01-28T21:08:51.752Z,2.57
2024-01-28T21:11:23.093Z,7.17
2024-01-28T21:13:54.422Z,3.87
2024-01-28T21:16:25.931Z,3.53
2024-01-28T21:18:57.384Z,4.77
2024-01-28T21:21:29.545Z,4.00
2024-01-28T21:24:01.025Z,3.17
2024-01-28T21:26:32.492Z,4.10
2024-01-28T21:29:05.652Z,3.97
2024-01-28T21:31:37.347Z,5.83
2024-01-28T21:34:08.874Z,4.47
2024-01-28T21:36:40.484Z,4.53
2024-01-28T21:39:12.217Z,5.73
2024-01-28T21:41:43.585Z,4.90
2024-01-28T21:44:15.232Z,7.40
2024-01-28T21:46:46.751Z,7.13
2024-01-28T21:49:18.341Z,4.90
2024-01-28T21:51:50.875Z,4.40
2024-01-28T21:54:22.504Z,4.43
2024-01-28T21:56:53.873Z,5.23
2024-01-28T21:59:25.220Z,3.57
2024-01-28T22:01:56.683Z,3.97
2024-01-28T22:04:28.279Z,3.97
2024-01-28T22:06:59.717Z,4.33
2024-01-28T22:09:31.507Z,4.57
2024-01-28T22:12:06.101Z,3.93
2024-01-28T22:14:38.853Z,5.00
2024-01-28T22:17:10.423Z,3.97
2024-01-28T22:19:41.777Z,4.33
2024-01-28T22:22:13.144Z,4.20
2024-01-28T22:24:44.526Z,3.97
2024-01-28T22:27:15.887Z,3.57
2024-01-28T22:29:47.260Z,2.80
2024-01-28T22:32:18.687Z,4.80
2024-01-28T22:34:53.115Z,5.77
2024-01-28T22:37:24.693Z,2.77
2024-01-28T22:39:56.106Z,3.60
2024-01-28T22:42:29.342Z,3.67
2024-01-28T22:45:00.690Z,3.63
2024-01-28T22:47:33.080Z,4.77
2024-01-28T22:50:06.457Z,3.63
2024-01-28T22:52:37.803Z,4.87
2024-01-28T22:55:09.481Z,3.13
2024-01-28T22:57:41.715Z,3.97
2024-01-28T23:00:27.153Z,2.23
2024-01-28T23:02:59.118Z,4.13
2024-01-28T23:05:30.563Z,3.77
2024-01-28T23:08:02.005Z,3.20
2024-01-28T23:10:33.331Z,3.40
2024-01-28T23:13:06.554Z,2.90
2024-01-28T23:15:38.101Z,3.17
2024-01-28T23:18:10.390Z,6.63
2024-01-28T23:20:41.820Z,3.20
2024-01-28T23:23:13.188Z,4.67
2024-01-28T23:25:44.518Z,3.87
2024-01-28T23:28:16.914Z,3.67
2024-01-28T23:30:48.773Z,3.17
2024-01-28T23:33:20.435Z,2.73
2024-01-28T23:35:51.813Z,4.20
2024-01-28T23:38:23.453Z,2.70
2024-01-28T23:40:55.562Z,2.77
2024-01-28T23:43:27.216Z,3.07
2024-01-28T23:45:59.369Z,4.87
2024-01-28T23:48:30.872Z,3.43
2024-01-28T23:51:03.866Z,3.30
2024-01-28T23:53:35.217Z,2.43
2024-01-28T23:56:07.812Z,4.27
2024-01-28T23:58:39.478Z,6.03
